Time;durP1;ratioP1;P1;durP2;ratioP2;P2;SDS_P1;SDS_P2;PMS_P1;PMS_P2;Temp;Humidity;BMP_temperature;BMP_pressure;BME280_temperature;BME280_humidity;BME280_pressure;Samples;Min_cycle;Max_cycle;Signal;HPM_P1;HPM_P2
2020/12/21 00:00:10;;;;;;;17.40;15.07;;;;;;;0.16;100.00;96739.59;1049029;28;20146;-75
2020/12/21 00:00:41;;;;;;;18.08;15.63;;;;;;;0.14;100.00;96738.97;1052802;28;20012;-75
2020/12/21 00:01:11;;;;;;;18.33;15.38;;;;;;;0.14;100.00;96738.97;1052736;28;20024;-75
2020/12/21 00:01:43;;;;;;;19.20;16.50;;;;;;;0.22;100.00;96742.34;1052963;28;20020;-75
2020/12/21 00:02:14;;;;;;;20.27;16.52;;;;;;;0.18;100.00;96729.81;1052794;28;20093;-75
2020/12/21 00:02:47;;;;;;;16.95;15.15;;;;;;;0.20;100.00;96744.31;1048606;28;20074;-75
2020/12/21 00:03:17;;;;;;;19.23;15.98;;;;;;;0.22;100.00;96736.31;1048678;28;20508;-75
2020/12/21 00:03:48;;;;;;;18.40;15.10;;;;;;;0.24;100.00;96731.75;1048763;28;20016;-75
2020/12/21 00:04:19;;;;;;;21.38;16.50;;;;;;;0.21;100.00;96729.47;1048672;28;20024;-75
2020/12/21 00:04:49;;;;;;;20.73;17.10;;;;;;;0.20;100.00;96743.50;1049067;28;20016;-75
2020/12/21 00:05:20;;;;;;;25.10;17.08;;;;;;;0.16;100.00;96737.00;1048732;28;20050;-75
2020/12/21 00:05:50;;;;;;;19.98;15.48;;;;;;;0.22;100.00;96742.34;1049013;28;20082;-75
2020/12/21 00:06:20;;;;;;;18.98;15.10;;;;;;;0.19;100.00;96741.88;1048859;28;20016;-75
2020/12/21 00:06:54;;;;;;;19.50;15.15;;;;;;;0.20;100.00;96741.69;1049388;28;20588;-75
2020/12/21 00:07:25;;;;;;;20.55;15.95;;;;;;;0.27;100.00;96741.84;1049807;28;20481;-75
2020/12/21 00:07:59;;;;;;;19.55;16.08;;;;;;;0.31;100.00;96740.53;1049213;28;20024;-78
2020/12/21 00:08:30;;;;;;;21.25;16.55;;;;;;;0.31;100.00;96737.91;1049390;28;20029;-76
2020/12/21 00:09:00;;;;;;;18.75;15.57;;;;;;;0.25;100.00;96749.84;1046540;28;20750;-76
2020/12/21 00:09:31;;;;;;;18.83;15.98;;;;;;;0.21;100.00;96745.94;1049364;28;20029;-76
2020/12/21 00:10:03;;;;;;;21.02;16.13;;;;;;;0.18;100.00;96742.84;1052836;28;20020;-76
2020/12/21 00:10:33;;;;;;;21.08;16.88;;;;;;;0.18;100.00;96742.84;1052690;28;20024;-76
2020/12/21 00:11:03;;;;;;;20.40;16.60;;;;;;;0.20;100.00;96748.72;1053162;28;20020;-76
2020/12/21 00:11:39;;;;;;;21.27;16.38;;;;;;;0.19;100.00;96747.09;1053116;28;20020;-76
2020/12/21 00:12:09;;;;;;;19.67;15.60;;;;;;;0.21;100.00;96747.72;1053130;28;20150;-76
2020/12/21 00:12:39;;;;;;;17.67;15.30;;;;;;;0.24;100.00;96750.81;1052986;28;20085;-76
2020/12/21 00:13:10;;;;;;;24.27;17.42;;;;;;;0.19;100.00;96747.09;1053044;28;20415;-76
2020/12/21 00:13:43;;;;;;;18.92;15.75;;;;;;;0.18;100.00;96753.28;1048975;28;20497;-76
2020/12/21 00:14:14;;;;;;;22.58;16.98;;;;;;;0.11;100.00;96747.91;1048519;28;20181;-76
2020/12/21 00:14:44;;;;;;;21.17;16.90;;;;;;;0.15;100.00;96746.63;1048562;28;20477;-76
2020/12/21 00:15:15;;;;;;;21.00;16.23;;;;;;;0.08;100.00;96744.84;1049060;28;20025;-76
2020/12/21 00:15:45;;;;;;;19.48;16.63;;;;;;;0.14;100.00;96744.19;1052850;28;20024;-76
2020/12/21 00:16:15;;;;;;;19.92;16.13;;;;;;;0.15;100.00;96751.03;1053182;28;20020;-76
2020/12/21 00:16:48;;;;;;;19.05;15.98;;;;;;;0.07;100.00;96743.22;1052930;28;20024;-76
2020/12/21 00:17:18;;;;;;;20.48;16.23;;;;;;;0.07;100.00;96744.03;1051627;28;20027;-76
2020/12/21 00:17:48;;;;;;;22.13;17.38;;;;;;;0.08;100.00;96748.25;1048436;28;20044;-76
2020/12/21 00:18:19;;;;;;;21.48;16.88;;;;;;;0.12;100.00;96751.31;1048590;28;20020;-76
2020/12/21 00:18:49;;;;;;;19.48;16.30;;;;;;;0.15;100.00;96751.81;1048632;28;20465;-76
2020/12/21 00:19:20;;;;;;;20.05;16.15;;;;;;;0.16;100.00;96752.63;1049961;28;20101;-76
2020/12/21 00:19:51;;;;;;;20.30;16.33;;;;;;;0.18;100.00;96756.69;1053072;28;20371;-76
2020/12/21 00:20:21;;;;;;;23.38;17.38;;;;;;;0.12;100.00;96751.31;1052923;28;20028;-75
2020/12/21 00:20:51;;;;;;;21.38;17.15;;;;;;;0.11;100.00;96760.13;1052120;28;20097;-75
2020/12/21 00:21:22;;;;;;;21.70;17.42;;;;;;;0.09;100.00;96755.09;1050168;28;20074;-75
2020/12/21 00:21:53;;;;;;;21.15;16.38;;;;;;;0.15;100.00;96754.44;1052785;28;20028;-76
2020/12/21 00:22:23;;;;;;;19.67;15.98;;;;;;;0.16;100.00;96753.44;1048684;28;20025;-76
2020/12/21 00:22:53;;;;;;;18.83;16.02;;;;;;;0.24;100.00;96757.84;1047125;28;20021;-76
2020/12/21 00:23:24;;;;;;;19.55;16.63;;;;;;;0.30;100.00;96759.75;1050166;28;20047;-76
2020/12/21 00:23:54;;;;;;;18.08;15.13;;;;;;;0.31;100.00;96766.59;1051856;28;20095;-76
2020/12/21 00:24:25;;;;;;;22.02;16.52;;;;;;;0.28;100.00;96762.53;1048620;28;20039;-76
2020/12/21 00:24:55;;;;;;;17.13;14.32;;;;;;;0.27;100.00;96754.88;1048592;28;20380;-76
2020/12/21 00:25:26;;;;;;;18.77;16.27;;;;;;;0.25;100.00;96762.06;1048675;28;20021;-76
2020/12/21 00:25:56;;;;;;;20.73;16.02;;;;;;;0.22;100.00;96752.75;1052719;28;20024;-76
2020/12/21 00:26:26;;;;;;;19.88;16.73;;;;;;;0.35;100.00;96756.63;1052754;28;20492;-75
2020/12/21 00:26:57;;;;;;;18.92;15.80;;;;;;;0.35;100.00;96757.44;1052270;28;20043;-76
2020/12/21 00:27:27;;;;;;;18.67;16.27;;;;;;;0.37;100.00;96752.09;1052580;28;20031;-76
2020/12/21 00:27:58;;;;;;;19.20;16.58;;;;;;;0.34;100.00;96752.41;1052960;28;20036;-76
2020/12/21 00:28:28;;;;;;;19.02;15.90;;;;;;;0.40;100.00;96755.16;1053119;28;20023;-76
2020/12/21 00:28:59;;;;;;;20.17;15.70;;;;;;;0.42;100.00;96753.19;1053149;28;20020;-76
2020/12/21 00:29:29;;;;;;;20.25;16.30;;;;;;;0.37;100.00;96749.47;1050244;28;20099;-76
2020/12/21 00:29:59;;;;;;;20.60;17.15;;;;;;;0.33;100.00;96763.81;1048984;28;20469;-76
2020/12/21 00:30:30;;;;;;;19.70;16.88;;;;;;;0.37;100.00;96760.72;1048417;28;20029;-76
2020/12/21 00:31:00;;;;;;;18.65;16.63;;;;;;;0.39;100.00;96753.53;1048492;28;20020;-76
2020/12/21 00:31:31;;;;;;;20.05;16.40;;;;;;;0.35;100.00;96754.84;1049479;28;20024;-76
2020/12/21 00:32:02;;;;;;;19.75;15.68;;;;;;;0.33;100.00;96748.16;1048529;28;20023;-75
2020/12/21 00:32:33;;;;;;;21.88;16.83;;;;;;;0.24;100.00;96756.03;1048859;28;20029;-76
2020/12/21 00:33:03;;;;;;;19.42;15.70;;;;;;;0.30;100.00;96751.94;1048944;28;20389;-76
2020/12/21 00:33:34;;;;;;;22.00;18.05;;;;;;;0.19;100.00;96757.50;1051841;28;20035;-76
2020/12/21 00:34:04;;;;;;;22.27;17.23;;;;;;;0.18;100.00;96750.69;1053099;28;20024;-76
2020/12/21 00:34:35;;;;;;;19.55;16.23;;;;;;;0.26;100.00;96755.88;1053082;28;20107;-76
2020/12/21 00:35:05;;;;;;;20.20;17.30;;;;;;;0.21;100.00;96743.31;1053090;28;20032;-75
2020/12/21 00:35:36;;;;;;;20.23;16.83;;;;;;;0.13;100.00;96750.38;1049282;28;20028;-76
2020/12/21 00:36:06;;;;;;;19.60;16.55;;;;;;;0.22;100.00;96752.75;1048883;28;20107;-75
2020/12/21 00:36:39;;;;;;;19.35;16.20;;;;;;;0.31;100.00;96755.34;1048879;28;20027;-77
2020/12/21 00:37:09;;;;;;;19.80;16.33;;;;;;;0.33;100.00;96741.16;1048836;28;20056;-75
2020/12/21 00:37:39;;;;;;;18.38;15.80;;;;;;;0.38;100.00;96749.31;1052064;28;20028;-76
2020/12/21 00:38:10;;;;;;;18.17;15.60;;;;;;;0.43;100.00;96743.56;1050139;28;20027;-75
2020/12/21 00:38:40;;;;;;;17.83;15.18;;;;;;;0.42;100.00;96742.75;1048572;28;20031;-75
2020/12/21 00:39:11;;;;;;;19.48;16.58;;;;;;;0.43;100.00;96744.38;1048610;28;20028;-76
2020/12/21 00:39:41;;;;;;;17.65;15.27;;;;;;;0.46;100.00;96738.81;1048826;28;20115;-75
2020/12/21 00:40:11;;;;;;;19.25;16.05;;;;;;;0.44;100.00;96734.75;1048903;28;20374;-76
2020/12/21 00:40:42;;;;;;;21.40;17.05;;;;;;;0.36;100.00;96740.03;1048593;28;20530;-75
2020/12/21 00:41:14;;;;;;;16.85;14.80;;;;;;;0.39;100.00;96737.88;1048842;28;20089;-76
2020/12/21 00:41:45;;;;;;;18.60;15.55;;;;;;;0.33;100.00;96735.94;1048628;28;20032;-75
2020/12/21 00:42:15;;;;;;;19.75;16.38;;;;;;;0.33;100.00;96735.94;1048966;28;20029;-75
2020/12/21 00:42:46;;;;;;;21.02;16.92;;;;;;;0.35;100.00;96741.78;1048769;28;20066;-75
2020/12/21 00:43:16;;;;;;;19.58;16.35;;;;;;;0.33;100.00;96735.13;1048847;28;20021;-75
2020/12/21 00:43:47;;;;;;;19.73;16.35;;;;;;;0.25;100.00;96739.41;1048613;28;20024;-75
2020/12/21 00:44:17;;;;;;;20.23;16.67;;;;;;;0.21;100.00;96745.94;1048541;28;20021;-75
2020/12/21 00:44:48;;;;;;;21.35;17.35;;;;;;;0.18;100.00;96748.88;1048615;28;20020;-75
2020/12/21 00:45:18;;;;;;;20.42;16.63;;;;;;;0.24;100.00;96756.03;1048580;28;20029;-76
2020/12/21 00:45:49;;;;;;;17.63;15.65;;;;;;;0.27;100.00;96749.66;1048833;28;20020;-76
2020/12/21 00:46:21;;;;;;;16.77;14.95;;;;;;;0.29;100.00;96748.50;1048817;28;20020;-76
2020/12/21 00:46:52;;;;;;;16.80;14.60;;;;;;;0.39;100.00;96757.94;1048854;28;20413;-76
2020/12/21 00:47:22;;;;;;;18.00;15.23;;;;;;;0.36;100.00;96753.88;1048914;28;20024;-76
2020/12/21 00:47:52;;;;;;;17.00;14.90;;;;;;;0.35;100.00;96749.63;1048732;28;20021;-75
2020/12/21 00:48:23;;;;;;;16.73;14.90;;;;;;;0.40;100.00;96755.16;1048309;28;20024;-76
2020/12/21 00:48:54;;;;;;;17.35;15.05;;;;;;;0.45;100.00;96746.81;1048549;28;20009;-76
2020/12/21 00:49:24;;;;;;;17.90;15.93;;;;;;;0.36;100.00;96753.88;1044420;28;20025;-76
2020/12/21 00:49:54;;;;;;;18.38;15.75;;;;;;;0.38;100.00;96749.31;1044412;28;20012;-75
2020/12/21 00:50:25;;;;;;;16.27;14.32;;;;;;;0.42;100.00;96755.78;1044341;28;20037;-76
2020/12/21 00:50:56;;;;;;;17.40;14.57;;;;;;;0.44;100.00;96753.81;1044440;28;20013;-75
2020/12/21 00:51:27;;;;;;;16.40;14.65;;;;;;;0.48;100.00;96759.53;1048869;28;20054;-76
2020/12/21 00:51:58;;;;;;;17.40;15.13;;;;;;;0.45;100.00;96760.66;1048747;28;20021;-76
2020/12/21 00:52:29;;;;;;;17.85;15.90;;;;;;;0.40;100.00;96762.97;1048618;28;20028;-76
2020/12/21 00:52:59;;;;;;;17.55;15.50;;;;;;;0.40;100.00;96757.75;1048787;28;20020;-76
2020/12/21 00:53:30;;;;;;;18.35;16.10;;;;;;;0.36;100.00;96764.31;1051351;28;21575;-76
2020/12/21 00:54:00;;;;;;;19.05;16.85;;;;;;;0.27;100.00;96760.09;1053008;28;20020;-76
2020/12/21 00:54:31;;;;;;;19.17;15.95;;;;;;;0.23;100.00;96753.56;1052743;28;20016;-77
2020/12/21 00:55:01;;;;;;;16.95;15.15;;;;;;;0.30;100.00;96762.38;1048363;28;20021;-77
2020/12/21 00:55:31;;;;;;;18.27;15.52;;;;;;;0.40;100.00;96760.38;1048528;28;20025;-77
2020/12/21 00:56:05;;;;;;;18.33;16.27;;;;;;;0.37;100.00;96755.50;1048518;28;20029;-77
2020/12/21 00:56:36;;;;;;;18.27;15.75;;;;;;;0.36;100.00;96766.91;1049490;28;20096;-77
2020/12/21 00:57:06;;;;;;;17.33;15.35;;;;;;;0.42;100.00;96752.38;1056918;28;20038;-77
2020/12/21 00:57:36;;;;;;;18.35;15.98;;;;;;;0.41;100.00;96759.38;1056969;28;20031;-77
2020/12/21 00:58:07;;;;;;;16.58;14.77;;;;;;;0.27;100.00;96752.28;1053575;28;20042;-77
2020/12/21 00:58:40;;;;;;;16.73;14.38;;;;;;;0.38;100.00;96757.13;1044581;28;20394;-75
2020/12/21 00:59:10;;;;;;;17.40;15.50;;;;;;;0.34;100.00;96761.03;1044653;28;20017;-75
2020/12/21 00:59:41;;;;;;;18.92;16.08;;;;;;;0.38;100.00;96759.72;1044722;28;20485;-75
2020/12/21 01:00:11;;;;;;;16.65;14.85;;;;;;;0.41;100.00;96754.19;1049925;28;20040;-75
2020/12/21 01:00:41;;;;;;;19.42;15.70;;;;;;;0.38;100.00;96754.53;1052671;28;20380;-75
2020/12/21 01:01:15;;;;;;;17.92;15.43;;;;;;;0.37;100.00;96749.47;1052827;28;20101;-76
2020/12/21 01:01:45;;;;;;;17.95;15.98;;;;;;;0.40;100.00;96755.16;1053027;28;20008;-76
2020/12/21 01:02:16;;;;;;;19.38;16.80;;;;;;;0.37;100.00;96759.91;1053004;28;20016;-76
2020/12/21 01:02:46;;;;;;;19.05;16.50;;;;;;;0.35;100.00;96762.66;1052856;28;20016;-76
2020/12/21 01:03:17;;;;;;;21.33;16.92;;;;;;;0.32;100.00;96759.59;1052792;28;20460;-76
2020/12/21 01:03:47;;;;;;;16.63;14.82;;;;;;;0.39;100.00;96756.16;1044655;28;20490;-76
2020/12/21 01:04:18;;;;;;;18.70;16.08;;;;;;;0.40;100.00;96759.56;1044690;28;20032;-76
2020/12/21 01:04:49;;;;;;;19.00;15.68;;;;;;;0.36;100.00;96764.31;1052036;28;20012;-76
2020/12/21 01:05:20;;;;;;;16.08;14.38;;;;;;;0.42;100.00;96763.63;1052933;28;20024;-75
2020/12/21 01:05:50;;;;;;;19.30;16.45;;;;;;;0.41;100.00;96764.59;1052672;28;20028;-75
2020/12/21 01:06:21;;;;;;;19.20;16.30;;;;;;;0.41;100.00;96755.97;1052904;28;20027;-75
2020/12/21 01:06:54;;;;;;;19.98;17.27;;;;;;;0.37;100.00;96750.28;1054396;28;20016;-76
2020/12/21 01:07:24;;;;;;;19.75;16.67;;;;;;;0.32;100.00;96762.19;1050463;28;20195;-76
2020/12/21 01:07:55;;;;;;;18.17;15.70;;;;;;;0.35;100.00;96762.66;1053244;28;20495;-76
2020/12/21 01:08:25;;;;;;;17.60;15.23;;;;;;;0.39;100.00;96757.94;1052603;28;20020;-76
2020/12/21 01:08:56;;;;;;;20.10;16.02;;;;;;;0.43;100.00;96760.03;1052690;28;20020;-75
2020/12/21 01:09:26;;;;;;;17.80;15.68;;;;;;;0.47;100.00;96763.91;1052943;28;20016;-75
2020/12/21 01:09:57;;;;;;;20.67;17.27;;;;;;;0.46;100.00;96764.91;1052958;28;20036;-75
2020/12/21 01:10:27;;;;;;;19.63;15.95;;;;;;;0.48;100.00;96757.75;1052945;28;20024;-76
2020/12/21 01:10:58;;;;;;;20.17;16.85;;;;;;;0.46;100.00;96764.09;1052721;28;20032;-76
2020/12/21 01:11:31;;;;;;;20.98;17.77;;;;;;;0.41;100.00;96772.44;1052925;28;20487;-75
2020/12/21 01:12:01;;;;;;;19.92;17.13;;;;;;;0.34;100.00;96774.06;1052995;28;20008;-75
2020/12/21 01:12:31;;;;;;;18.70;16.40;;;;;;;0.36;100.00;96771.31;1052466;28;20044;-75
2020/12/21 01:13:02;;;;;;;18.70;16.70;;;;;;;0.37;100.00;96768.53;1052747;28;20057;-75
2020/12/21 01:13:34;;;;;;;19.42;17.20;;;;;;;0.36;100.00;96779.97;1052007;28;20028;-75
2020/12/21 01:14:05;;;;;;;19.15;16.83;;;;;;;0.39;100.00;96771.78;1049030;28;20020;-75
2020/12/21 01:14:35;;;;;;;17.25;15.38;;;;;;;0.42;100.00;96778.47;1048419;28;20366;-75
2020/12/21 01:15:06;;;;;;;17.88;15.95;;;;;;;0.43;100.00;96775.69;1048451;28;20030;-76
2020/12/21 01:15:36;;;;;;;19.55;16.85;;;;;;;0.42;100.00;96771.44;1048418;28;20020;-76
2020/12/21 01:16:06;;;;;;;17.02;15.27;;;;;;;0.44;100.00;96766.88;1048382;28;20485;-76
2020/12/21 01:16:37;;;;;;;17.67;15.77;;;;;;;0.52;100.00;96774.66;1048810;28;20021;-76
2020/12/21 01:17:07;;;;;;;18.00;15.68;;;;;;;0.51;100.00;96772.22;1048757;28;20024;-76
2020/12/21 01:17:38;;;;;;;17.10;15.13;;;;;;;0.55;100.00;96770.91;1048616;28;20032;-75
2020/12/21 01:18:08;;;;;;;17.95;15.35;;;;;;;0.55;100.00;96770.91;1048730;28;20027;-76
2020/12/21 01:18:39;;;;;;;17.40;15.52;;;;;;;0.54;100.00;96767.47;1048771;28;20063;-76
2020/12/21 01:19:09;;;;;;;20.02;16.73;;;;;;;0.50;100.00;96774.03;1048754;28;20016;-76
2020/12/21 01:19:40;;;;;;;20.33;17.30;;;;;;;0.54;100.00;96771.88;1048632;28;20033;-76
2020/12/21 01:20:12;;;;;;;19.08;16.35;;;;;;;0.55;100.00;96778.72;1048532;28;20020;-76
2020/12/21 01:20:43;;;;;;;17.10;15.25;;;;;;;0.55;100.00;96763.88;1048637;28;20442;-76
2020/12/21 01:21:21;;;;;;;17.63;15.73;;;;;;;0.64;100.00;96769.06;1048708;28;20036;-75
2020/12/21 01:21:51;;;;;;;17.70;15.82;;;;;;;0.58;100.00;96768.75;1048748;28;20030;-75
2020/12/21 01:22:22;;;;;;;16.88;15.10;;;;;;;0.58;100.00;96768.75;1048600;28;20028;-76
2020/12/21 01:22:52;;;;;;;17.48;15.57;;;;;;;0.62;100.00;96776.25;1048738;28;20069;-76
2020/12/21 01:23:22;;;;;;;19.65;16.48;;;;;;;0.60;100.00;96771.22;1048331;28;20012;-75
2020/12/21 01:23:54;;;;;;;20.15;16.55;;;;;;;0.45;100.00;96765.88;1048465;28;20020;-75
2020/12/21 01:24:24;;;;;;;21.10;18.40;;;;;;;0.51;100.00;96772.22;1049381;28;20653;-75
2020/12/21 01:24:55;;;;;;;17.88;15.98;;;;;;;0.51;100.00;96767.00;1050733;28;20053;-76
2020/12/21 01:25:25;;;;;;;17.77;15.88;;;;;;;0.56;100.00;96778.56;1050883;28;20046;-76
2020/12/21 01:25:56;;;;;;;18.52;15.95;;;;;;;0.57;100.00;96769.75;1050559;28;20050;-77
2020/12/21 01:26:26;;;;;;;18.48;16.13;;;;;;;0.67;100.00;96772.16;1050137;28;20102;-77
2020/12/21 01:26:57;;;;;;;19.25;16.73;;;;;;;0.67;100.00;96773.94;1049764;28;20112;-77
2020/12/21 01:27:27;;;;;;;17.88;15.90;;;;;;;0.58;100.00;96773.97;1048733;28;20483;-76
2020/12/21 01:27:59;;;;;;;16.90;15.10;;;;;;;0.61;100.00;96775.44;1048440;28;20477;-76
2020/12/21 01:28:29;;;;;;;19.40;17.30;;;;;;;0.59;100.00;96774.78;1048584;28;20020;-77
2020/12/21 01:28:59;;;;;;;20.08;17.85;;;;;;;0.61;100.00;96785.88;1048771;28;20028;-76
2020/12/21 01:29:30;;;;;;;19.20;16.48;;;;;;;0.64;100.00;96784.72;1048494;28;20024;-75
2020/12/21 01:30:00;;;;;;;17.88;15.98;;;;;;;0.66;100.00;96782.75;1048329;28;20024;-74
2020/12/21 01:30:31;;;;;;;16.20;14.50;;;;;;;0.67;100.00;96787.81;1048619;28;20358;-77
2020/12/21 01:31:01;;;;;;;17.85;15.95;;;;;;;0.72;100.00;96784.69;1048373;28;20024;-75
2020/12/21 01:31:31;;;;;;;19.15;16.35;;;;;;;0.70;100.00;96786.63;1048421;28;20425;-76
2020/12/21 01:32:02;;;;;;;17.63;15.75;;;;;;;0.67;100.00;96787.00;1048249;28;20512;-75
2020/12/21 01:32:32;;;;;;;18.98;16.38;;;;;;;0.71;100.00;96783.88;1048407;28;20012;-75
2020/12/21 01:33:03;;;;;;;18.58;16.17;;;;;;;0.71;100.00;96781.28;1048643;28;20080;-75
2020/12/21 01:33:33;;;;;;;18.33;16.00;;;;;;;0.77;100.00;96779.78;1048685;28;20016;-75
2020/12/21 01:34:03;;;;;;;19.23;17.13;;;;;;;0.73;100.00;96776.69;1048639;28;20033;-75
2020/12/21 01:34:34;;;;;;;18.83;15.93;;;;;;;0.72;100.00;96775.06;1048655;28;20020;-75
2020/12/21 01:35:04;;;;;;;17.60;15.68;;;;;;;0.76;100.00;96770.31;1048378;28;20390;-75
2020/12/21 01:35:35;;;;;;;16.95;15.15;;;;;;;0.76;100.00;96773.75;1048407;28;20016;-74
2020/12/21 01:36:05;;;;;;;17.73;15.82;;;;;;;0.76;100.00;96770.31;1048251;28;20029;-73
2020/12/21 01:36:36;;;;;;;18.50;16.10;;;;;;;0.80;100.00;96761.16;1048444;28;20016;-74
2020/12/21 01:37:06;;;;;;;16.70;14.98;;;;;;;0.72;100.00;96767.25;1048717;28;20023;-73
2020/12/21 01:37:36;;;;;;;16.60;14.68;;;;;;;0.80;100.00;96771.59;1048663;28;20123;-73
2020/12/21 01:38:07;;;;;;;17.90;14.57;;;;;;;0.80;100.00;96763.75;1048543;28;20054;-73
2020/12/21 01:38:37;;;;;;;19.73;16.75;;;;;;;0.77;100.00;96764.94;1048533;28;20098;-73
2020/12/21 01:39:08;;;;;;;17.13;15.07;;;;;;;0.72;100.00;96769.84;1048646;28;20086;-74
2020/12/21 01:39:38;;;;;;;18.15;15.93;;;;;;;0.72;100.00;96769.03;1048655;28;20027;-73
2020/12/21 01:40:10;;;;;;;19.48;16.10;;;;;;;0.67;100.00;96761.72;1048404;28;20040;-73
2020/12/21 01:40:41;;;;;;;18.15;16.15;;;;;;;0.74;100.00;96772.28;1048591;28;20047;-74
2020/12/21 01:41:11;;;;;;;18.92;16.27;;;;;;;0.71;100.00;96767.41;1048674;28;20024;-74
2020/12/21 01:41:42;;;;;;;17.77;15.70;;;;;;;0.72;100.00;96772.47;1048646;28;20470;-74
2020/12/21 01:42:12;;;;;;;18.27;16.30;;;;;;;0.67;100.00;96766.13;1048601;28;20020;-74
2020/12/21 01:42:43;;;;;;;17.73;15.40;;;;;;;0.70;100.00;96773.59;1048623;28;20383;-76
2020/12/21 01:43:13;;;;;;;17.30;15.48;;;;;;;0.71;100.00;96772.63;1048598;28;20587;-76
2020/12/21 01:43:43;;;;;;;17.58;15.52;;;;;;;0.69;100.00;96774.59;1048542;28;20046;-76
2020/12/21 01:44:14;;;;;;;17.90;16.00;;;;;;;0.69;100.00;96774.59;1048506;28;20082;-76
2020/12/21 01:44:48;;;;;;;16.45;14.18;;;;;;;0.72;100.00;96774.25;1048608;28;20066;-76
2020/12/21 01:45:18;;;;;;;17.27;15.45;;;;;;;0.67;100.00;96787.00;1048456;28;20488;-76
2020/12/21 01:45:49;;;;;;;17.58;15.35;;;;;;;0.66;100.00;96775.75;1048381;28;20027;-76
2020/12/21 01:46:19;;;;;;;15.57;13.88;;;;;;;0.69;100.00;96774.59;1048263;28;20024;-76
2020/12/21 01:46:50;;;;;;;19.13;16.52;;;;;;;0.71;100.00;96773.44;1048280;28;20012;-76
2020/12/21 01:47:20;;;;;;;19.25;16.13;;;;;;;0.75;100.00;96776.53;1048361;28;20013;-76
2020/12/21 01:47:50;;;;;;;19.75;16.38;;;;;;;0.67;100.00;96777.38;1048343;28;20013;-77
2020/12/21 01:48:21;;;;;;;19.13;15.48;;;;;;;0.72;100.00;96779.47;1048361;28;20021;-77
2020/12/21 01:48:51;;;;;;;17.73;14.65;;;;;;;0.71;100.00;96775.22;1044085;28;20017;-77
2020/12/21 01:49:22;;;;;;;17.77;15.57;;;;;;;0.73;100.00;96786.31;1048224;28;20024;-77
2020/12/21 01:49:52;;;;;;;17.17;14.48;;;;;;;0.73;100.00;96781.09;1044407;28;20025;-78
2020/12/21 01:50:23;;;;;;;18.38;15.98;;;;;;;0.76;100.00;96786.78;1040220;28;20026;-77
2020/12/21 01:50:53;;;;;;;16.90;14.85;;;;;;;0.76;100.00;96783.38;1044163;28;20021;-77
2020/12/21 01:51:26;;;;;;;18.77;15.75;;;;;;;0.72;100.00;96779.47;1040205;28;20018;-77
2020/12/21 01:51:56;;;;;;;18.10;14.63;;;;;;;0.78;100.00;96784.00;1040510;28;20047;-77
2020/12/21 01:52:27;;;;;;;15.52;13.77;;;;;;;0.80;100.00;96782.03;1044110;28;20021;-77
2020/12/21 01:52:58;;;;;;;19.63;15.00;;;;;;;0.76;100.00;96791.19;1044525;28;20017;-77
2020/12/21 01:53:28;;;;;;;20.08;16.23;;;;;;;0.80;100.00;96782.03;1047964;28;20017;-77
2020/12/21 01:53:59;;;;;;;18.73;15.55;;;;;;;0.83;100.00;96792.16;1048488;28;20104;-77
2020/12/21 01:54:30;;;;;;;18.20;15.20;;;;;;;0.84;100.00;96784.16;1052499;28;20028;-78
2020/12/21 01:55:00;;;;;;;19.20;15.50;;;;;;;0.82;100.00;96785.28;1052351;28;20081;-77
2020/12/21 01:55:31;;;;;;;17.30;14.90;;;;;;;0.74;100.00;96788.75;1048466;28;20535;-77
2020/12/21 01:56:03;;;;;;;19.85;16.33;;;;;;;0.68;100.00;96793.84;1040113;28;20017;-77
2020/12/21 01:56:34;;;;;;;20.73;16.90;;;;;;;0.71;100.00;96788.25;1040106;28;20452;-77
2020/12/21 01:57:04;;;;;;;18.45;15.93;;;;;;;0.72;100.00;96790.72;1035886;28;20021;-77
2020/12/21 01:57:35;;;;;;;18.48;16.02;;;;;;;0.74;100.00;96790.56;1036785;28;20040;-78
2020/12/21 01:58:06;;;;;;;17.13;15.25;;;;;;;0.72;100.00;96787.31;1044243;28;20488;-77
2020/12/21 01:58:37;;;;;;;19.20;15.88;;;;;;;0.65;100.00;96789.78;1044155;28;20099;-77
2020/12/21 01:59:07;;;;;;;19.35;16.27;;;;;;;0.64;100.00;96782.94;1039886;28;20318;-77
2020/12/21 01:59:37;;;;;;;18.25;16.23;;;;;;;0.67;100.00;96774.75;1039655;28;20518;-78
2020/12/21 02:00:09;;;;;;;20.38;17.13;;;;;;;0.68;100.00;96775.56;1039918;28;20080;-78
2020/12/21 02:00:39;;;;;;;23.42;18.17;;;;;;;0.67;100.00;96779.16;1040563;28;20022;-78
2020/12/21 02:01:11;;;;;;;20.73;16.90;;;;;;;0.62;100.00;96779.69;1048192;28;20497;-77
2020/12/21 02:01:41;;;;;;;19.77;16.92;;;;;;;0.63;100.00;96777.88;1047929;28;20047;-77
2020/12/21 02:02:12;;;;;;;17.42;15.57;;;;;;;0.71;100.00;96773.44;1044154;28;20044;-78
2020/12/21 02:02:43;;;;;;;19.25;16.17;;;;;;;0.72;100.00;96775.06;1044212;28;20394;-77
2020/12/21 02:03:13;;;;;;;17.88;14.82;;;;;;;0.74;100.00;96778.31;1044024;28;20492;-78
2020/12/21 02:03:43;;;;;;;20.23;15.95;;;;;;;0.74;100.00;96780.13;1044089;28;20028;-78
2020/12/21 02:04:14;;;;;;;18.70;16.35;;;;;;;0.72;100.00;96779.47;1044139;28;20097;-77
2020/12/21 02:04:44;;;;;;;19.75;16.15;;;;;;;0.77;100.00;96777.97;1044025;28;20405;-77
2020/12/21 02:05:15;;;;;;;19.23;15.57;;;;;;;0.76;100.00;96775.53;1044217;28;20458;-77
2020/12/21 02:05:45;;;;;;;19.95;15.98;;;;;;;0.76;100.00;96780.75;1044439;28;20363;-77
2020/12/21 02:06:17;;;;;;;18.00;14.90;;;;;;;0.77;100.00;96774.56;1044297;28;20021;-77
2020/12/21 02:06:48;;;;;;;17.33;15.23;;;;;;;0.73;100.00;96774.09;1044304;28;20021;-77
2020/12/21 02:07:18;;;;;;;18.58;14.80;;;;;;;0.80;100.00;96766.38;1043731;28;20477;-77
2020/12/21 02:07:49;;;;;;;17.95;15.45;;;;;;;0.76;100.00;96768.53;1040059;28;20032;-77
2020/12/21 02:08:19;;;;;;;18.30;15.52;;;;;;;0.75;100.00;96769.50;1041186;28;20047;-77
2020/12/21 02:08:49;;;;;;;18.42;15.15;;;;;;;0.77;100.00;96766.72;1043944;28;20021;-78
2020/12/21 02:09:20;;;;;;;18.52;15.00;;;;;;;0.74;100.00;96767.06;1048143;28;20020;-78
2020/12/21 02:09:51;;;;;;;19.52;15.77;;;;;;;0.76;100.00;96763.31;1044458;28;20052;-78
2020/12/21 02:10:22;;;;;;;18.50;15.88;;;;;;;0.74;100.00;96767.88;1044494;28;20024;-78
2020/12/21 02:10:53;;;;;;;19.98;17.35;;;;;;;0.76;100.00;96763.31;1044082;28;20493;-78
2020/12/21 02:11:25;;;;;;;17.52;15.18;;;;;;;0.78;100.00;96763.13;1044067;28;20017;-77
2020/12/21 02:11:55;;;;;;;16.60;14.65;;;;;;;0.78;100.00;96769.16;1044167;28;20104;-77
2020/12/21 02:12:26;;;;;;;22.05;16.58;;;;;;;0.80;100.00;96767.19;1044165;28;20033;-78
2020/12/21 02:12:56;;;;;;;17.52;14.93;;;;;;;0.76;100.00;96759.88;1044150;28;20382;-78
2020/12/21 02:13:27;;;;;;;19.42;15.15;;;;;;;0.77;100.00;96767.53;1043964;28;20032;-77
2020/12/21 02:13:57;;;;;;;17.88;15.88;;;;;;;0.79;100.00;96768.16;1044135;28;20024;-77
2020/12/21 02:14:29;;;;;;;19.65;15.55;;;;;;;0.84;100.00;96767.69;1044132;28;20026;-77
2020/12/21 02:14:59;;;;;;;18.45;15.45;;;;;;;0.83;100.00;96769.47;1044470;28;20477;-78
2020/12/21 02:15:29;;;;;;;16.25;14.15;;;;;;;0.81;100.00;96773.22;1044448;28;20029;-78
2020/12/21 02:16:03;;;;;;;20.08;16.15;;;;;;;0.80;100.00;96774.19;1044393;28;20021;-78
2020/12/21 02:16:34;;;;;;;19.80;15.77;;;;;;;0.84;100.00;96778.13;1044457;28;20017;-78
2020/12/21 02:17:04;;;;;;;19.08;16.13;;;;;;;0.87;100.00;96777.75;1048307;28;20020;-77
2020/12/21 02:17:35;;;;;;;19.33;16.48;;;;;;;0.85;100.00;96777.94;1048246;28;20044;-77
2020/12/21 02:18:05;;;;;;;19.27;15.20;;;;;;;0.90;100.00;96777.41;1049342;28;20053;-77
2020/12/21 02:18:35;;;;;;;20.05;16.38;;;;;;;0.92;100.00;96782.47;1048232;28;20075;-78
2020/12/21 02:19:06;;;;;;;19.67;16.40;;;;;;;0.93;100.00;96781.47;1044471;28;20098;-77
2020/12/21 02:19:36;;;;;;;20.55;17.05;;;;;;;0.87;100.00;96780.38;1044406;28;20084;-77
2020/12/21 02:20:07;;;;;;;19.92;16.15;;;;;;;0.85;100.00;96784.97;1044197;28;20045;-77
2020/12/21 02:20:37;;;;;;;21.30;16.35;;;;;;;0.80;100.00;96782.84;1044423;28;20545;-76
2020/12/21 02:21:08;;;;;;;19.85;15.85;;;;;;;0.87;100.00;96782.97;1044370;28;20037;-76